createdAt,value
2022-08-20T00:00:18.164Z,101825.91
2022-08-20T00:02:47.590Z,101823.28
2022-08-20T00:05:15.741Z,101821.69
2022-08-20T00:07:43.901Z,101816.59
2022-08-20T00:10:11.909Z,101823.09
2022-08-20T00:12:39.940Z,101815.31
2022-08-20T00:15:09.870Z,101821.88
2022-08-20T00:17:38.245Z,101822.84
2022-08-20T00:20:07.643Z,101813.13
2022-08-20T00:22:35.694Z,101818.59
2022-08-20T00:25:03.716Z,101806.09
2022-08-20T00:27:31.688Z,101814.19
2022-08-20T00:29:59.697Z,101811.59
2022-08-20T00:32:29.079Z,101814.31
2022-08-20T00:34:57.055Z,101800.69
2022-08-20T00:37:25.658Z,101802.22
2022-08-20T00:39:53.710Z,101790.56
2022-08-20T00:42:21.732Z,101794.03
2022-08-20T00:44:49.741Z,101797.81
2022-08-20T00:47:17.693Z,101799.63
2022-08-20T00:49:47.437Z,101790.78
2022-08-20T00:52:17.455Z,101798.13
2022-08-20T00:54:47.194Z,101801.66
2022-08-20T00:57:19.427Z,101791.47
2022-08-20T00:59:47.441Z,101796.56
2022-08-20T01:02:17.660Z,101793.09
2022-08-20T01:04:49.713Z,101790.63
2022-08-20T01:07:20.492Z,101789.94
2022-08-20T01:09:57.863Z,101789.06
2022-08-20T01:12:27.737Z,101789.06
2022-08-20T01:14:55.698Z,101793.50
2022-08-20T01:17:26.561Z,101802.19
2022-08-20T01:19:58.518Z,101796.25
2022-08-20T01:22:49.182Z,101799.41
2022-08-20T01:25:20.669Z,101798.47
2022-08-20T01:27:50.935Z,101800.00
2022-08-20T01:30:26.003Z,101801.81
2022-08-20T01:32:53.958Z,101797.41
2022-08-20T01:35:22.117Z,101801.16
2022-08-20T01:37:50.123Z,101797.59
2022-08-20T01:40:21.490Z,101793.19
2022-08-20T01:42:59.239Z,101789.50
2022-08-20T01:45:30.941Z,101799.88
2022-08-20T01:47:59.198Z,101801.47
2022-08-20T01:50:28.798Z,101799.53
2022-08-20T01:52:58.798Z,101796.91
2022-08-20T01:55:27.692Z,101796.84
2022-08-20T01:57:57.199Z,101791.13
2022-08-20T02:00:25.389Z,101802.69
2022-08-20T02:02:53.413Z,101790.06
2022-08-20T02:05:21.604Z,101786.50
2022-08-20T02:07:49.795Z,101788.31
2022-08-20T02:10:18.337Z,101781.41
2022-08-20T02:12:46.289Z,101783.53
2022-08-20T02:15:16.064Z,101784.69
2022-08-20T02:17:44.804Z,101787.38
2022-08-20T02:20:14.337Z,101781.00
2022-08-20T02:22:44.255Z,101786.38
2022-08-20T02:25:18.422Z,101784.69
2022-08-20T02:27:46.977Z,101782.84
2022-08-20T02:30:19.286Z,101783.69
2022-08-20T02:32:56.528Z,101779.09
2022-08-20T02:35:24.643Z,101780.63
2022-08-20T02:37:52.732Z,101781.97
2022-08-20T02:40:27.337Z,101770.94
2022-08-20T02:42:59.257Z,101783.19
2022-08-20T02:45:28.740Z,101777.88
2022-08-20T02:47:57.245Z,101778.69
2022-08-20T02:50:27.004Z,101776.78
2022-08-20T02:52:55.060Z,101767.75
2022-08-20T02:55:26.871Z,101770.28
2022-08-20T02:57:58.655Z,101774.47
2022-08-20T03:00:38.049Z,101776.78
2022-08-20T03:03:06.993Z,101774.41
2022-08-20T03:05:35.045Z,101769.28
2022-08-20T03:08:04.879Z,101757.63
2022-08-20T03:10:34.523Z,101752.25
2022-08-20T03:13:02.808Z,101754.84
2022-08-20T03:15:32.344Z,101754.84
2022-08-20T03:18:00.986Z,101753.66
2022-08-20T03:20:29.221Z,101753.59
2022-08-20T03:22:57.301Z,101745.50
2022-08-20T03:25:25.368Z,101747.31
2022-08-20T03:27:54.400Z,101742.03
2022-08-20T03:30:23.102Z,101736.66
2022-08-20T03:32:52.519Z,101739.34
2022-08-20T03:35:21.461Z,101739.34
2022-08-20T03:37:49.564Z,101732.00
2022-08-20T03:40:20.632Z,101730.84
2022-08-20T03:42:48.632Z,101737.66
2022-08-20T03:45:20.343Z,101738.53
2022-08-20T03:47:48.752Z,101737.00
2022-08-20T03:50:23.581Z,101742.22
2022-08-20T03:52:51.848Z,101735.84
2022-08-20T03:55:20.043Z,101735.75
2022-08-20T03:57:49.697Z,101732.25
2022-08-20T04:00:20.692Z,101731.31
2022-08-20T04:02:48.798Z,101726.78
2022-08-20T04:05:18.263Z,101730.34
2022-08-20T04:07:46.245Z,101734.78
2022-08-20T04:10:14.334Z,101731.97
2022-08-20T04:12:53.056Z,101740.94
2022-08-20T04:15:22.746Z,101694.09
2022-08-20T04:17:51.392Z,101737.47
2022-08-20T04:20:23.210Z,101741.22
2022-08-20T04:22:58.337Z,101733.44
2022-08-20T04:25:28.522Z,101739.22
2022-08-20T04:27:58.419Z,101717.69
2022-08-20T04:30:26.724Z,101732.78
2022-08-20T04:32:56.122Z,101737.44
2022-08-20T04:35:25.638Z,101740.13
2022-08-20T04:37:59.214Z,101737.31
2022-08-20T04:40:44.231Z,101748.69
2022-08-20T04:43:12.426Z,101750.31
2022-08-20T04:45:40.447Z,101744.06
2022-08-20T04:48:12.897Z,101750.03
2022-08-20T04:50:44.993Z,101756.06
2022-08-20T04:53:13.544Z,101752.59
2022-08-20T04:55:42.601Z,101753.66
2022-08-20T04:58:11.986Z,101760.16
2022-08-20T05:00:40.103Z,101764.97
2022-08-20T05:03:08.290Z,101759.00
2022-08-20T05:05:36.333Z,101760.16
2022-08-20T05:08:06.670Z,101729.34
2022-08-20T05:10:47.761Z,101768.44
2022-08-20T05:13:15.771Z,101767.59
2022-08-20T05:15:45.628Z,101766.91
2022-08-20T05:18:13.736Z,101769.84
2022-08-20T05:20:42.812Z,101774.66
2022-08-20T05:23:13.094Z,101781.91
2022-08-20T05:25:41.435Z,101772.94
2022-08-20T05:28:14.479Z,101781.97
2022-08-20T05:30:43.351Z,101785.44
2022-08-20T05:33:11.736Z,101788.63
2022-08-20T05:35:39.941Z,101792.97
2022-08-20T05:38:08.117Z,101798.06
2022-08-20T05:40:37.529Z,101800.41
2022-08-20T05:43:06.032Z,101800.19
2022-08-20T05:45:34.312Z,101800.78
2022-08-20T05:48:05.646Z,101803.28
2022-08-20T05:50:34.109Z,101806.75
2022-08-20T05:53:02.385Z,101811.16
2022-08-20T05:55:30.424Z,101795.84
2022-08-20T05:58:00.001Z,101813.78
2022-08-20T06:00:28.415Z,101820.88
2022-08-20T06:03:13.601Z,101818.97
2022-08-20T06:05:41.649Z,101827.25
2022-08-20T06:08:10.402Z,101819.06
2022-08-20T06:10:38.946Z,101799.72
2022-08-20T06:13:13.984Z,101816.84
2022-08-20T06:15:42.323Z,101815.69
2022-08-20T06:18:28.071Z,101818.25
2022-08-20T06:20:56.988Z,101822.41
2022-08-20T06:23:25.506Z,101822.22
2022-08-20T06:25:53.728Z,101835.41
2022-08-20T06:28:23.443Z,101788.81
2022-08-20T06:30:51.441Z,101829.97
2022-08-20T06:33:19.610Z,101834.97
2022-08-20T06:35:47.666Z,101811.31
2022-08-20T06:38:16.081Z,101830.28
2022-08-20T06:40:44.041Z,101829.28
2022-08-20T06:43:12.095Z,101830.09
2022-08-20T06:45:41.494Z,101831.63
2022-08-20T06:48:10.917Z,101842.09
2022-08-20T06:50:47.897Z,101830.13
2022-08-20T06:53:17.447Z,101833.59
2022-08-20T06:55:48.409Z,101833.47
2022-08-20T06:58:32.693Z,101821.84
2022-08-20T07:01:10.111Z,101819.97
2022-08-20T07:03:39.156Z,101825.94
2022-08-20T07:06:07.609Z,101821.63
2022-08-20T07:08:35.788Z,101832.13
2022-08-20T07:11:03.750Z,101835.56
2022-08-20T07:13:32.185Z,101833.75
2022-08-20T07:16:00.353Z,101830.94
2022-08-20T07:18:29.773Z,101823.59
2022-08-20T07:20:57.981Z,101831.50
2022-08-20T07:23:26.021Z,101830.31
2022-08-20T07:25:55.644Z,101829.25
2022-08-20T07:28:24.449Z,101827.13
2022-08-20T07:31:13.448Z,101832.84
2022-08-20T07:33:44.327Z,101833.28
2022-08-20T07:36:12.749Z,101823.06
2022-08-20T07:38:40.919Z,101825.13
2022-08-20T07:41:09.989Z,101829.16
2022-08-20T07:43:39.516Z,101826.91
2022-08-20T07:46:09.337Z,101817.41
2022-08-20T07:48:40.093Z,101820.53
2022-08-20T07:51:10.830Z,101826.38
2022-08-20T07:53:39.333Z,101827.75
2022-08-20T07:56:08.907Z,101826.06
2022-08-20T07:58:38.416Z,101820.09
2022-08-20T08:01:06.748Z,101823.75
2022-08-20T08:03:48.944Z,101832.00
2022-08-20T08:06:29.718Z,101834.50
2022-08-20T08:09:00.485Z,101837.06
2022-08-20T08:11:28.507Z,101833.28
2022-08-20T08:13:56.496Z,101824.19
2022-08-20T08:16:24.520Z,101822.28
2022-08-20T08:18:56.368Z,101831.03
2022-08-20T08:21:26.039Z,101830.91
2022-08-20T08:23:54.250Z,101826.03
2022-08-20T08:26:22.418Z,101826.16
2022-08-20T08:28:50.882Z,101821.38
2022-08-20T08:31:18.964Z,101812.31
2022-08-20T08:33:47.422Z,101820.19
2022-08-20T08:36:16.472Z,101821.06
2022-08-20T08:38:46.456Z,101822.06
2022-08-20T08:41:18.034Z,101805.38
2022-08-20T08:43:47.923Z,101831.00
2022-08-20T08:46:18.251Z,101821.84
2022-08-20T08:48:47.849Z,101828.94
2022-08-20T08:51:27.828Z,101835.22
2022-08-20T08:53:57.242Z,101833.09
2022-08-20T08:56:26.360Z,101831.66
2022-08-20T08:58:59.627Z,101832.41
2022-08-20T09:01:54.581Z,101833.84
2022-08-20T09:04:16.249Z,101824.41
2022-08-20T09:06:52.258Z,101830.59
2022-08-20T09:09:23.997Z,101819.53
2022-08-20T09:11:53.987Z,101830.25
2022-08-20T09:14:22.937Z,101833.28
2022-08-20T09:16:52.807Z,101828.94
2022-08-20T09:19:21.697Z,101824.56
2022-08-20T09:21:49.882Z,101825.72
2022-08-20T09:24:17.932Z,101831.53
2022-08-20T09:26:47.368Z,101828.97
2022-08-20T09:29:15.370Z,101826.25
2022-08-20T09:31:43.382Z,101838.47
2022-08-20T09:34:13.176Z,101830.25
2022-08-20T09:36:41.237Z,101833.69
2022-08-20T09:39:10.026Z,101841.69
2022-08-20T09:41:38.106Z,101831.03
2022-08-20T09:44:07.454Z,101841.09
2022-08-20T09:46:35.677Z,101834.91
2022-08-20T09:49:03.704Z,101840.72
2022-08-20T09:51:31.768Z,101834.53
2022-08-20T09:53:59.994Z,101838.56
2022-08-20T09:56:28.053Z,101834.25
2022-08-20T09:58:58.959Z,101835.59
2022-08-20T10:01:31.762Z,101834.38
2022-08-20T10:03:59.817Z,101839.09
2022-08-20T10:06:27.873Z,101833.19
2022-08-20T10:08:55.884Z,101829.06
2022-08-20T10:11:24.117Z,101830.53
2022-08-20T10:13:53.150Z,101837.34
2022-08-20T10:16:21.132Z,101833.13
2022-08-20T10:18:50.562Z,101832.03
2022-08-20T10:21:18.761Z,101829.97
2022-08-20T10:23:46.779Z,101827.63
2022-08-20T10:26:15.136Z,101832.84
2022-08-20T10:28:43.176Z,101835.97
2022-08-20T10:31:11.897Z,101804.75
2022-08-20T10:33:40.226Z,101834.81
2022-08-20T10:36:10.349Z,101829.63
2022-08-20T10:38:38.345Z,101826.16
2022-08-20T10:41:06.749Z,101830.84
2022-08-20T10:43:34.753Z,101829.63
2022-08-20T10:46:02.922Z,101828.16
2022-08-20T10:48:30.908Z,101818.16
2022-08-20T10:50:58.956Z,101825.81
2022-08-20T10:53:28.460Z,101822.25
2022-08-20T10:55:56.517Z,101823.25
2022-08-20T10:58:24.536Z,101820.41
2022-08-20T11:00:52.516Z,101825.69
2022-08-20T11:03:20.693Z,101817.38
2022-08-20T11:05:48.706Z,101812.75
2022-08-20T11:08:22.633Z,101821.53
2022-08-20T11:11:04.055Z,101824.50
2022-08-20T11:13:32.075Z,101827.69
2022-08-20T11:16:00.064Z,101814.84
2022-08-20T11:18:28.075Z,101820.41
2022-08-20T11:20:56.536Z,101820.44
2022-08-20T11:23:24.578Z,101821.47
2022-08-20T11:25:52.645Z,101824.84
2022-08-20T11:28:31.197Z,101822.38
2022-08-20T11:31:00.877Z,101815.50
2022-08-20T11:33:29.180Z,101815.53
2022-08-20T11:35:57.186Z,101825.72
2022-08-20T11:38:25.220Z,101817.25
2022-08-20T11:40:53.268Z,101815.56
2022-08-20T11:43:22.765Z,101815.09
2022-08-20T11:45:51.602Z,101814.69
2022-08-20T11:48:19.646Z,101821.03
2022-08-20T11:50:47.725Z,101821.63
2022-08-20T11:53:15.823Z,101811.88
2022-08-20T11:55:44.184Z,101807.44
2022-08-20T11:58:12.305Z,101816.00
2022-08-20T12:00:41.756Z,101812.28
2022-08-20T12:03:10.422Z,101813.78
2022-08-20T12:05:40.120Z,101819.94
2022-08-20T12:08:08.443Z,101827.84
2022-08-20T12:10:36.611Z,101809.88
2022-08-20T12:13:05.006Z,101816.47
2022-08-20T12:15:33.287Z,101789.66
2022-08-20T12:18:02.622Z,101812.88
2022-08-20T12:20:30.621Z,101816.47
2022-08-20T12:22:59.016Z,101816.38
2022-08-20T12:25:27.129Z,101803.00
2022-08-20T12:27:55.089Z,101808.91
2022-08-20T12:30:23.970Z,101805.47
2022-08-20T12:32:52.038Z,101805.16
2022-08-20T12:35:21.692Z,101806.13
2022-08-20T12:37:49.673Z,101804.72
2022-08-20T12:40:24.528Z,101796.28
2022-08-20T12:43:00.649Z,101798.41
2022-08-20T12:45:28.939Z,101792.78
2022-08-20T12:48:02.346Z,101787.22
2022-08-20T12:50:32.081Z,101787.38
2022-08-20T12:53:00.541Z,101790.13
2022-08-20T12:55:28.618Z,101783.56
2022-08-20T12:57:59.198Z,101772.16
2022-08-20T13:00:28.429Z,101785.84
2022-08-20T13:02:59.286Z,101789.56
2022-08-20T13:05:27.437Z,101790.38
2022-08-20T13:07:56.913Z,101787.13
2022-08-20T13:10:26.596Z,101787.72
2022-08-20T13:12:54.671Z,101778.25
2022-08-20T13:15:22.697Z,101773.66
2022-08-20T13:17:52.961Z,101776.31
2022-08-20T13:20:21.173Z,101766.78
2022-08-20T13:22:49.251Z,101773.88
2022-08-20T13:25:18.828Z,101772.16
2022-08-20T13:27:46.793Z,101774.44
2022-08-20T13:30:16.653Z,101781.66
2022-08-20T13:32:44.696Z,101777.06
2022-08-20T13:35:12.905Z,101778.50
2022-08-20T13:37:41.445Z,101780.38
2022-08-20T13:40:10.537Z,101779.91
2022-08-20T13:42:40.184Z,101776.03
2022-08-20T13:45:09.874Z,101784.00
2022-08-20T13:47:38.471Z,101777.47
2022-08-20T13:50:08.288Z,101768.75
2022-08-20T13:52:36.389Z,101767.53
2022-08-20T13:55:06.419Z,101776.63
2022-08-20T13:57:35.342Z,101773.88
2022-08-20T14:00:07.267Z,101774.41
2022-08-20T14:02:35.277Z,101776.63
2022-08-20T14:05:03.270Z,101777.34
2022-08-20T14:07:32.784Z,101775.63
2022-08-20T14:10:02.344Z,101773.72
2022-08-20T14:12:30.894Z,101766.31
2022-08-20T14:14:59.035Z,101764.91
2022-08-20T14:17:29.483Z,101767.00
2022-08-20T14:20:01.114Z,101764.75
2022-08-20T14:22:29.931Z,101759.78
2022-08-20T14:24:59.580Z,101772.69
2022-08-20T14:27:31.130Z,101754.09
2022-08-20T14:29:59.566Z,101725.72
2022-08-20T14:32:29.092Z,101751.84
2022-08-20T14:34:59.297Z,101746.94
2022-08-20T14:37:29.262Z,101748.25
2022-08-20T14:39:58.662Z,101750.41
2022-08-20T14:42:28.140Z,101741.25
2022-08-20T14:44:56.273Z,101747.97
2022-08-20T14:47:25.118Z,101749.50
2022-08-20T14:49:55.487Z,101743.13
2022-08-20T14:52:24.032Z,101748.69
2022-08-20T14:54:56.251Z,101748.22
2022-08-20T14:57:24.317Z,101743.19
2022-08-20T14:59:53.683Z,101719.44
2022-08-20T15:02:22.251Z,101750.50
2022-08-20T15:04:54.257Z,101745.22
2022-08-20T15:07:26.513Z,101748.84
2022-08-20T15:09:54.641Z,101707.47
2022-08-20T15:12:22.696Z,101742.81
2022-08-20T15:14:51.093Z,101738.47
2022-08-20T15:17:19.834Z,101739.53
2022-08-20T15:19:47.911Z,101734.78
2022-08-20T15:22:15.981Z,101731.72
2022-08-20T15:24:45.387Z,101736.63
2022-08-20T15:27:20.399Z,101734.50
2022-08-20T15:29:50.527Z,101729.13
2022-08-20T15:32:18.636Z,101722.75
2022-08-20T15:34:47.846Z,101730.22
2022-08-20T15:37:16.841Z,101728.53
2022-08-20T15:39:46.497Z,101729.84
2022-08-20T15:42:14.726Z,101733.44
2022-08-20T15:44:43.112Z,101735.44
2022-08-20T15:47:20.092Z,101728.13
2022-08-20T15:49:48.313Z,101735.25
2022-08-20T15:52:16.397Z,101741.28
2022-08-20T15:54:44.395Z,101730.63
2022-08-20T15:57:14.898Z,101730.47
2022-08-20T15:59:52.641Z,101733.00
2022-08-20T16:02:34.673Z,101723.41
2022-08-20T16:05:11.310Z,101707.59
2022-08-20T16:07:43.373Z,101709.13
2022-08-20T16:10:15.858Z,101718.00
2022-08-20T16:12:49.610Z,101716.44
2022-08-20T16:15:19.602Z,101716.97
2022-08-20T16:17:49.333Z,101714.31
2022-08-20T16:20:21.663Z,101703.94
2022-08-20T16:22:49.657Z,101703.34
2022-08-20T16:25:22.824Z,101708.59
2022-08-20T16:27:57.742Z,101710.00
2022-08-20T16:30:30.780Z,101694.75
2022-08-20T16:33:01.377Z,101708.91
2022-08-20T16:35:31.522Z,101703.72
2022-08-20T16:38:03.780Z,101711.06
2022-08-20T16:40:34.511Z,101665.13
2022-08-20T16:43:06.987Z,101690.59
2022-08-20T16:45:50.818Z,101682.31
2022-08-20T16:48:19.653Z,101702.44
2022-08-20T16:50:52.557Z,101703.50
2022-08-20T16:53:22.929Z,101709.56
2022-08-20T16:55:51.014Z,101704.81
2022-08-20T16:58:20.366Z,101691.25
2022-08-20T17:00:48.445Z,101690.94
2022-08-20T17:03:31.608Z,101691.31
2022-08-20T17:06:15.909Z,101685.44
2022-08-20T17:08:49.681Z,101683.56
2022-08-20T17:11:23.025Z,101680.75
2022-08-20T17:13:52.445Z,101679.13
2022-08-20T17:16:21.402Z,101655.47
2022-08-20T17:18:50.026Z,101677.69
2022-08-20T17:21:23.382Z,101679.78
2022-08-20T17:23:56.285Z,101673.50
2022-08-20T17:26:36.401Z,101669.00
2022-08-20T17:29:13.918Z,101664.88
2022-08-20T17:31:42.960Z,101665.06
2022-08-20T17:34:14.937Z,101664.44
2022-08-20T17:36:49.879Z,101665.03
2022-08-20T17:39:18.959Z,101662.69
2022-08-20T17:41:49.000Z,101663.31
2022-08-20T17:44:22.851Z,101652.22
2022-08-20T17:46:51.150Z,101669.25
2022-08-20T17:49:20.106Z,101661.84
2022-08-20T17:51:49.437Z,101660.97
2022-08-20T17:54:20.551Z,101661.88
2022-08-20T17:56:48.804Z,101668.09
2022-08-20T17:59:24.123Z,101671.88
2022-08-20T18:02:09.388Z,101671.28
2022-08-20T18:04:37.602Z,101677.88
2022-08-20T18:07:12.999Z,101674.44
2022-08-20T18:09:46.802Z,101675.47
2022-08-20T18:12:27.969Z,101674.63
2022-08-20T18:15:07.021Z,101684.38
2022-08-20T18:17:55.826Z,101678.25
2022-08-20T18:20:35.560Z,101677.88
2022-08-20T18:23:07.603Z,101664.94
2022-08-20T18:25:36.856Z,101680.06
2022-08-20T18:28:07.678Z,101673.53
2022-08-20T18:30:35.674Z,101676.84
2022-08-20T18:33:07.732Z,101679.91
2022-08-20T18:35:37.562Z,101679.53
2022-08-20T18:38:13.447Z,101687.81
2022-08-20T18:40:41.683Z,101682.84
2022-08-20T18:43:13.241Z,101687.44
2022-08-20T18:45:41.263Z,101694.91
2022-08-20T18:48:20.247Z,101701.78
2022-08-20T18:50:50.680Z,101693.19
2022-08-20T18:53:20.832Z,101691.69
2022-08-20T18:55:49.351Z,101693.03
2022-08-20T18:58:30.297Z,101690.31
2022-08-20T19:00:58.285Z,101698.91
2022-08-20T19:03:30.414Z,101708.00
2022-08-20T19:06:11.012Z,101698.97
2022-08-20T19:08:49.133Z,101698.91
2022-08-20T19:11:41.862Z,101698.38
2022-08-20T19:14:22.040Z,101694.31
2022-08-20T19:16:51.045Z,101689.13
2022-08-20T19:19:21.412Z,101685.75
2022-08-20T19:21:49.443Z,101679.00
2022-08-20T19:24:21.317Z,101680.81
2022-08-20T19:26:53.678Z,101679.22
2022-08-20T19:29:24.605Z,101681.31
2022-08-20T19:31:58.511Z,101676.84
2022-08-20T19:34:28.001Z,101682.53
2022-08-20T19:36:58.507Z,101685.31
2022-08-20T19:39:27.060Z,101676.94
2022-08-20T19:41:57.614Z,101696.00
2022-08-20T19:44:28.397Z,101689.94
2022-08-20T19:46:56.448Z,101688.09
2022-08-20T19:49:28.829Z,101675.78
2022-08-20T19:52:03.761Z,101682.41
2022-08-20T19:54:31.822Z,101679.31
2022-08-20T19:57:00.716Z,101683.09
2022-08-20T19:59:28.741Z,101687.03
2022-08-20T20:02:00.374Z,101680.84
2022-08-20T20:04:30.394Z,101681.91
2022-08-20T20:06:59.221Z,101676.50
2022-08-20T20:09:28.548Z,101663.88
2022-08-20T20:11:57.615Z,101670.56
2022-08-20T20:14:28.488Z,101674.47
2022-08-20T20:16:56.549Z,101664.22
2022-08-20T20:19:27.510Z,101654.72
2022-08-20T20:22:07.605Z,101664.34
2022-08-20T20:24:49.955Z,101665.91
2022-08-20T20:27:23.796Z,101658.13
2022-08-20T20:29:52.241Z,101658.25
2022-08-20T20:32:21.001Z,101658.69
2022-08-20T20:34:55.675Z,101656.41
2022-08-20T20:37:49.904Z,101661.31
2022-08-20T20:40:23.652Z,101653.00
2022-08-20T20:42:58.947Z,101656.97
2022-08-20T20:45:33.092Z,101661.84
2022-08-20T20:48:13.837Z,101655.88
2022-08-20T20:50:42.367Z,101655.13
2022-08-20T20:53:11.750Z,101650.81
2022-08-20T20:55:39.920Z,101651.81
2022-08-20T20:58:08.024Z,101653.50
2022-08-20T21:00:36.105Z,101658.03
2022-08-20T21:03:04.783Z,101656.09
2022-08-20T21:05:33.252Z,101662.38
2022-08-20T21:08:03.114Z,101670.91
2022-08-20T21:10:34.624Z,101661.84
2022-08-20T21:13:03.453Z,101668.13
2022-08-20T21:15:31.408Z,101669.31
2022-08-20T21:17:59.923Z,101660.97
2022-08-20T21:20:27.954Z,101658.94
2022-08-20T21:22:57.316Z,101655.38
2022-08-20T21:25:25.737Z,101658.41
2022-08-20T21:27:55.295Z,101653.16
2022-08-20T21:30:23.981Z,101646.25
2022-08-20T21:32:52.068Z,101657.63
2022-08-20T21:35:20.303Z,101644.88
2022-08-20T21:37:48.298Z,101643.94
2022-08-20T21:40:21.599Z,101640.25
2022-08-20T21:42:50.091Z,101649.84
2022-08-20T21:45:20.889Z,101641.66
2022-08-20T21:47:49.203Z,101643.34
2022-08-20T21:50:19.027Z,101645.84
2022-08-20T21:52:58.036Z,101643.16
2022-08-20T21:55:27.806Z,101637.50
2022-08-20T21:57:55.802Z,101640.44
2022-08-20T22:00:47.781Z,101637.22
2022-08-20T22:03:15.930Z,101645.63
2022-08-20T22:05:44.009Z,101647.59
2022-08-20T22:08:12.010Z,101641.41
2022-08-20T22:10:40.012Z,101644.44
2022-08-20T22:13:08.128Z,101644.66
2022-08-20T22:15:36.148Z,101648.22
2022-08-20T22:18:05.580Z,101651.78
2022-08-20T22:20:33.614Z,101651.91
2022-08-20T22:23:01.948Z,101653.81
2022-08-20T22:25:29.920Z,101644.97
2022-08-20T22:27:57.884Z,101649.84
2022-08-20T22:30:25.914Z,101652.88
2022-08-20T22:32:54.474Z,101664.00
2022-08-20T22:35:23.887Z,101625.00
2022-08-20T22:37:51.960Z,101658.59
2022-08-20T22:40:20.101Z,101654.03
2022-08-20T22:42:48.137Z,101644.88
2022-08-20T22:45:16.146Z,101651.81
2022-08-20T22:47:44.159Z,101647.91
2022-08-20T22:50:12.421Z,101633.31
2022-08-20T22:52:43.452Z,101624.97
2022-08-20T22:55:11.712Z,101624.66
2022-08-20T22:57:39.817Z,101621.88
2022-08-20T23:00:10.668Z,101610.94
2022-08-20T23:02:38.855Z,101612.66
2022-08-20T23:05:07.464Z,101619.78
2022-08-20T23:07:35.476Z,101614.38
2022-08-20T23:10:05.228Z,101626.28
2022-08-20T23:12:33.251Z,101627.59
2022-08-20T23:15:01.294Z,101627.06
2022-08-20T23:17:29.301Z,101630.84
2022-08-20T23:19:57.304Z,101626.72
2022-08-20T23:22:25.293Z,101624.13
2022-08-20T23:24:55.385Z,101619.72
2022-08-20T23:27:28.136Z,101621.63
2022-08-20T23:29:56.143Z,101631.59
2022-08-20T23:32:24.133Z,101628.91
2022-08-20T23:34:52.239Z,101627.69
2022-08-20T23:37:20.231Z,101629.09
2022-08-20T23:39:49.823Z,101627.06
2022-08-20T23:42:18.072Z,101623.91
2022-08-20T23:44:47.473Z,101611.06
2022-08-20T23:47:19.307Z,101623.44
2022-08-20T23:49:47.480Z,101621.44
2022-08-20T23:52:15.419Z,101623.41
2022-08-20T23:54:43.443Z,101611.81
2022-08-20T23:57:12.506Z,101609.31
2022-08-20T23:59:41.968Z,101605.31
